createdAt,value
2018-11-01T00:03:56.367Z,3.90
2018-11-01T00:09:00.149Z,3.70
2018-11-01T00:14:04.414Z,3.60
2018-11-01T00:19:07.984Z,3.70
2018-11-01T00:24:11.477Z,3.60
2018-11-01T00:29:14.860Z,3.50
2018-11-01T00:34:18.364Z,3.50
2018-11-01T00:39:21.756Z,3.60
2018-11-01T00:44:25.303Z,3.50
2018-11-01T00:49:28.821Z,3.60
2018-11-01T00:54:32.437Z,3.60
2018-11-01T00:59:35.881Z,3.60
2018-11-01T01:04:39.375Z,3.40
2018-11-01T01:09:42.768Z,3.10
2018-11-01T01:14:46.203Z,3.20
2018-11-01T01:19:49.640Z,3.10
2018-11-01T01:24:53.188Z,3.10
2018-11-01T01:29:56.632Z,3.00
2018-11-01T01:35:00.201Z,2.90
2018-11-01T01:40:03.692Z,3.00
2018-11-01T01:45:08.229Z,3.10
2018-11-01T01:50:13.206Z,3.10
2018-11-01T01:55:16.778Z,2.90
2018-11-01T02:00:20.851Z,2.80
2018-11-01T02:05:24.261Z,2.90
2018-11-01T02:10:27.665Z,2.70
2018-11-01T02:15:31.118Z,2.70
2018-11-01T02:20:34.605Z,2.70
2018-11-01T02:25:37.977Z,2.60
2018-11-01T02:30:41.398Z,2.40
2018-11-01T02:35:44.748Z,2.30
2018-11-01T02:40:48.154Z,2.20
2018-11-01T02:45:51.573Z,2.20
2018-11-01T02:50:55.077Z,2.40
2018-11-01T02:55:58.496Z,2.40
2018-11-01T03:01:02.036Z,2.40
2018-11-01T03:06:05.607Z,2.30
2018-11-01T03:11:09.128Z,2.40
2018-11-01T03:16:12.517Z,2.40
2018-11-01T03:21:15.909Z,2.50
2018-11-01T03:26:19.512Z,2.50
2018-11-01T03:31:23.040Z,2.40
2018-11-01T03:36:26.470Z,2.40
2018-11-01T03:41:29.959Z,2.30
2018-11-01T03:46:33.300Z,2.20
2018-11-01T03:51:36.730Z,1.90
2018-11-01T03:56:40.272Z,1.80
2018-11-01T04:01:43.806Z,1.70
2018-11-01T04:06:47.320Z,1.70
2018-11-01T04:11:50.728Z,1.60
2018-11-01T04:16:54.143Z,1.70
2018-11-01T04:22:02.871Z,1.80
2018-11-01T04:27:06.670Z,1.80
2018-11-01T04:32:10.073Z,1.80
2018-11-01T04:37:13.496Z,1.90
2018-11-01T04:42:16.892Z,1.80
2018-11-01T04:47:20.312Z,1.90
2018-11-01T04:52:23.574Z,1.70
2018-11-01T04:57:26.887Z,1.60
2018-11-01T05:02:30.395Z,1.50
2018-11-01T05:07:33.721Z,1.60
2018-11-01T05:12:37.706Z,1.60
2018-11-01T05:17:41.105Z,1.60
2018-11-01T05:22:44.593Z,1.60
2018-11-01T05:27:47.916Z,1.70
2018-11-01T05:32:51.368Z,1.60
2018-11-01T05:37:54.680Z,1.40
2018-11-01T05:42:58.102Z,1.50
2018-11-01T05:48:01.453Z,1.50
2018-11-01T05:53:05.247Z,1.50
2018-11-01T05:58:08.561Z,1.50
2018-11-01T06:03:11.933Z,1.50
2018-11-01T06:08:18.030Z,1.40
2018-11-01T06:13:21.574Z,1.40
2018-11-01T06:18:24.872Z,1.40
2018-11-01T06:23:28.156Z,1.50
2018-11-01T06:28:31.648Z,1.60
2018-11-01T06:33:35.152Z,1.50
2018-11-01T06:38:38.461Z,1.70
2018-11-01T06:43:41.792Z,1.70
2018-11-01T06:48:45.401Z,1.70
2018-11-01T06:53:48.742Z,1.70
2018-11-01T06:58:52.104Z,1.90
2018-11-01T07:03:55.583Z,2.00
2018-11-01T07:08:58.979Z,2.10
2018-11-01T07:14:02.328Z,2.20
2018-11-01T07:19:06.107Z,2.10
2018-11-01T07:24:09.527Z,2.20
2018-11-01T07:29:12.962Z,2.20
2018-11-01T07:34:16.428Z,2.40
2018-11-01T07:39:19.885Z,2.50
2018-11-01T07:44:23.274Z,2.60
2018-11-01T07:49:26.637Z,2.80
2018-11-01T07:54:30.069Z,3.00
2018-11-01T07:59:33.616Z,3.10
2018-11-01T08:04:36.941Z,3.30
2018-11-01T08:09:40.398Z,3.40
2018-11-01T08:14:43.888Z,3.60
2018-11-01T08:19:47.462Z,3.80
2018-11-01T08:24:50.800Z,4.00
2018-11-01T08:29:54.268Z,3.90
2018-11-01T08:34:57.780Z,3.90
2018-11-01T08:40:01.336Z,4.10
2018-11-01T08:45:05.742Z,4.20
2018-11-01T08:50:10.567Z,4.50
2018-11-01T08:55:14.313Z,4.50
2018-11-01T09:00:17.905Z,4.70
2018-11-01T09:05:21.420Z,4.70
2018-11-01T09:10:25.202Z,4.90
2018-11-01T09:15:28.575Z,5.10
2018-11-01T09:20:32.032Z,5.30
2018-11-01T09:25:35.472Z,5.30
2018-11-01T09:30:38.910Z,5.30
2018-11-01T09:35:42.374Z,5.30
2018-11-01T09:40:45.775Z,5.50
2018-11-01T09:45:49.377Z,5.70
2018-11-01T09:50:52.806Z,5.80
2018-11-01T09:55:56.399Z,5.90
2018-11-01T10:00:59.722Z,6.10
2018-11-01T10:06:03.180Z,6.40
2018-11-01T10:11:06.496Z,6.50
2018-11-01T10:16:09.956Z,6.70
2018-11-01T10:21:13.222Z,6.90
2018-11-01T10:26:16.662Z,6.90
2018-11-01T10:31:20.266Z,6.90
2018-11-01T10:36:23.814Z,6.90
2018-11-01T10:41:27.266Z,7.10
2018-11-01T10:46:30.563Z,7.40
2018-11-01T10:51:33.990Z,7.20
2018-11-01T10:56:37.481Z,7.40
2018-11-01T11:01:47.976Z,7.60
2018-11-01T11:06:51.345Z,7.80
2018-11-01T11:11:54.722Z,7.90
2018-11-01T11:16:59.080Z,8.00
2018-11-01T11:22:02.518Z,8.20
2018-11-01T11:27:06.388Z,8.30
2018-11-01T11:32:09.828Z,8.40
2018-11-01T11:37:13.219Z,8.50
2018-11-01T11:42:16.581Z,8.50
2018-11-01T11:47:19.953Z,8.60
2018-11-01T11:52:23.348Z,8.70
2018-11-01T11:57:26.821Z,8.80
2018-11-01T12:02:30.184Z,9.00
2018-11-01T12:07:33.628Z,9.10
2018-11-01T12:12:36.956Z,9.10
2018-11-01T12:17:40.293Z,9.10
2018-11-01T12:22:43.853Z,9.20
2018-11-01T12:27:47.261Z,9.30
2018-11-01T12:32:50.686Z,9.30
2018-11-01T12:37:54.231Z,9.30
2018-11-01T12:42:57.559Z,9.30
2018-11-01T12:48:01.033Z,9.30
2018-11-01T12:53:04.423Z,9.30
2018-11-01T12:58:07.837Z,9.40
2018-11-01T13:03:11.371Z,9.40
2018-11-01T13:08:14.765Z,9.50
2018-11-01T13:13:18.110Z,9.50
2018-11-01T13:18:21.626Z,9.50
2018-11-01T13:23:25.025Z,9.50
2018-11-01T13:28:28.409Z,9.50
2018-11-01T13:33:31.824Z,9.60
2018-11-01T13:38:35.265Z,9.60
2018-11-01T13:43:38.613Z,9.60
2018-11-01T13:48:42.119Z,9.60
2018-11-01T13:53:45.505Z,9.60
2018-11-01T13:58:48.841Z,9.70
2018-11-01T14:03:52.241Z,9.70
2018-11-01T14:08:55.706Z,9.60
2018-11-01T14:13:59.226Z,9.60
2018-11-01T14:19:02.465Z,9.60
2018-11-01T14:24:06.086Z,9.50
2018-11-01T14:29:09.473Z,9.50
2018-11-01T14:34:15.767Z,9.50
2018-11-01T14:39:19.093Z,9.50
2018-11-01T14:49:25.731Z,9.40
2018-11-01T14:54:29.977Z,9.30
2018-11-01T14:59:34.416Z,9.30
2018-11-01T15:04:36.492Z,9.40
2018-11-01T15:09:40.025Z,9.50
2018-11-01T15:14:43.450Z,9.50
2018-11-01T15:19:46.888Z,9.60
2018-11-01T15:24:50.515Z,9.60
2018-11-01T15:34:57.861Z,9.50
2018-11-01T15:40:01.580Z,9.50
2018-11-01T15:45:05.405Z,9.30
2018-11-01T15:50:09.717Z,9.20
2018-11-01T15:55:13.096Z,9.20
2018-11-01T16:00:16.589Z,9.00
2018-11-01T16:05:20.001Z,9.00
2018-11-01T16:10:23.496Z,8.90
2018-11-01T16:15:27.017Z,8.70
2018-11-01T16:20:30.484Z,8.50
2018-11-01T16:25:33.915Z,8.40
2018-11-01T16:30:37.349Z,8.30
2018-11-01T16:35:40.738Z,8.10
2018-11-01T16:40:44.181Z,7.90
2018-11-01T16:45:47.557Z,7.70
2018-11-01T16:50:51.037Z,7.80
2018-11-01T16:55:54.635Z,7.50
2018-11-01T17:00:58.137Z,7.50
2018-11-01T17:06:01.454Z,7.20
2018-11-01T17:11:04.872Z,7.10
2018-11-01T17:16:08.649Z,7.00
2018-11-01T17:21:12.121Z,7.00
2018-11-01T17:26:15.490Z,6.80
2018-11-01T17:31:19.012Z,6.60
2018-11-01T17:36:22.374Z,6.50
2018-11-01T17:41:25.945Z,6.20
2018-11-01T17:46:29.538Z,6.00
2018-11-01T17:51:32.962Z,5.90
2018-11-01T17:56:36.393Z,6.00
2018-11-01T18:01:39.994Z,5.90
2018-11-01T18:06:43.270Z,5.90
2018-11-01T18:11:46.624Z,5.60
2018-11-01T18:16:50.246Z,5.60
2018-11-01T18:21:53.766Z,5.60
2018-11-01T18:26:57.473Z,5.60
2018-11-01T18:32:01.043Z,5.60
2018-11-01T18:37:04.643Z,5.60
2018-11-01T18:42:08.202Z,5.50
2018-11-01T18:47:11.723Z,5.50
2018-11-01T18:52:15.185Z,5.20
2018-11-01T18:57:18.667Z,5.20
2018-11-01T19:02:22.020Z,5.10
2018-11-01T19:07:25.469Z,5.10
2018-11-01T19:12:29.165Z,5.00
2018-11-01T19:17:32.862Z,5.40
2018-11-01T19:22:37.534Z,5.30
2018-11-01T19:27:41.044Z,5.10
2018-11-01T19:32:44.472Z,5.00
2018-11-01T19:37:48.386Z,4.80
2018-11-01T19:47:55.209Z,4.60
2018-11-01T19:52:59.189Z,4.50
2018-11-01T19:58:02.724Z,4.40
2018-11-01T20:03:06.300Z,4.50
2018-11-01T20:08:09.873Z,4.30
2018-11-01T20:13:13.191Z,4.20
2018-11-01T20:18:16.910Z,4.00
2018-11-01T20:23:20.590Z,4.00
2018-11-01T20:28:24.101Z,4.10
2018-11-01T20:33:27.726Z,4.00
2018-11-01T20:38:31.165Z,4.00
2018-11-01T20:43:35.068Z,3.90
2018-11-01T20:48:38.819Z,3.90
2018-11-01T20:53:42.311Z,3.70
2018-11-01T20:58:45.799Z,3.70
2018-11-01T21:03:49.446Z,3.90
2018-11-01T21:08:53.067Z,3.80
2018-11-01T21:13:56.751Z,3.70
2018-11-01T21:19:00.322Z,3.60
2018-11-01T21:24:03.946Z,3.60
2018-11-01T21:29:07.462Z,3.50
2018-11-01T21:34:11.077Z,3.40
2018-11-01T21:39:14.961Z,3.50
2018-11-01T21:44:18.635Z,3.50
2018-11-01T21:49:22.324Z,3.40
2018-11-01T21:54:26.289Z,3.20
2018-11-01T21:59:30.044Z,3.10
2018-11-01T22:04:33.468Z,3.00
2018-11-01T22:09:37.060Z,3.00
2018-11-01T22:14:40.730Z,3.00
2018-11-01T22:19:44.540Z,3.00
2018-11-01T22:24:47.924Z,3.20
2018-11-01T22:29:51.524Z,3.00
2018-11-01T22:34:55.178Z,3.10
2018-11-01T22:39:58.601Z,3.10
2018-11-01T22:45:02.341Z,2.90
2018-11-01T22:50:06.347Z,2.80
2018-11-01T22:55:10.947Z,2.70
2018-11-01T23:00:15.271Z,2.70
2018-11-01T23:05:18.681Z,2.70
2018-11-01T23:10:22.177Z,2.80
2018-11-01T23:15:25.519Z,2.90
2018-11-01T23:20:28.802Z,2.80
2018-11-01T23:25:32.109Z,2.90
2018-11-01T23:30:35.430Z,2.80
2018-11-01T23:35:38.772Z,2.70
2018-11-01T23:40:47.457Z,2.70
2018-11-01T23:45:56.296Z,2.70
2018-11-01T23:51:03.744Z,2.60
2018-11-01T23:56:07.170Z,2.60
